Time;durP1;ratioP1;P1;durP2;ratioP2;P2;SDS_P1;SDS_P2;PMS_P1;PMS_P2;Temp;Humidity;BMP_temperature;BMP_pressure;BME280_temperature;BME280_humidity;BME280_pressure;Samples;Min_cycle;Max_cycle;Signal;HPM_P1;HPM_P2
2021/08/24 00:00:42;;;;;;;1.80;1.10;;;15.30;99.90;;;;;;5094882;28;20561;-83
2021/08/24 00:03:09;;;;;;;3.13;1.80;;;15.20;99.90;;;;;;5094974;28;20540;-83
2021/08/24 00:05:37;;;;;;;2.07;1.80;;;15.10;99.90;;;;;;5095047;28;20546;-83
2021/08/24 00:08:05;;;;;;;1.80;1.50;;;15.00;99.90;;;;;;5095102;28;20538;-91
2021/08/24 00:10:36;;;;;;;2.60;1.50;;;15.00;99.90;;;;;;5094871;28;20557;-83
2021/08/24 00:13:03;;;;;;;2.40;1.50;;;14.90;99.90;;;;;;5094588;28;20541;-83
2021/08/24 00:15:32;;;;;;;2.50;1.30;;;14.90;99.90;;;;;;5094808;28;21020;-83
2021/08/24 00:18:00;;;;;;;1.57;1.47;;;14.90;99.90;;;;;;5094443;28;20972;-83
2021/08/24 00:20:31;;;;;;;2.10;1.40;;;14.80;99.90;;;;;;5094935;28;20473;-83
2021/08/24 00:22:58;;;;;;;3.07;1.67;;;14.70;99.90;;;;;;5094621;28;20442;-83
2021/08/24 00:25:25;;;;;;;3.93;1.57;;;14.70;99.90;;;;;;5094682;28;20534;-83
2021/08/24 00:27:51;;;;;;;2.30;1.37;;;14.70;99.90;;;;;;5094489;28;20454;-83
2021/08/24 00:30:18;;;;;;;1.90;1.33;;;14.60;99.90;;;;;;5094669;28;20876;-83
2021/08/24 00:32:46;;;;;;;1.97;1.77;;;14.50;99.90;;;;;;5094364;28;20953;-83
2021/08/24 00:35:12;;;;;;;3.30;1.57;;;14.50;99.90;;;;;;5094417;28;20512;-83
2021/08/24 00:37:39;;;;;;;3.70;1.73;;;14.50;99.90;;;;;;5093977;28;21051;-83
2021/08/24 00:40:08;;;;;;;2.07;1.70;;;14.50;99.90;;;;;;5094171;28;20534;-83
2021/08/24 00:42:35;;;;;;;1.87;1.67;;;14.50;99.90;;;;;;5093948;28;21013;-83
2021/08/24 00:45:01;;;;;;;1.60;1.33;;;14.40;99.90;;;;;;5094065;28;20569;-83
2021/08/24 00:47:28;;;;;;;2.23;1.63;;;14.40;99.90;;;;;;5093912;28;20482;-83
2021/08/24 00:50:05;;;;;;;2.40;1.77;;;14.40;99.90;;;;;;5094114;28;20450;-83
2021/08/24 00:52:32;;;;;;;2.40;1.30;;;14.40;99.90;;;;;;5093956;28;20478;-83
2021/08/24 00:54:58;;;;;;;1.43;1.30;;;14.40;99.90;;;;;;5093960;28;21008;-83
2021/08/24 00:57:26;;;;;;;2.80;1.47;;;14.40;99.90;;;;;;5093599;28;21004;-83
2021/08/24 00:59:55;;;;;;;2.97;1.40;;;14.40;99.90;;;;;;5094029;28;20503;-83
2021/08/24 01:02:25;;;;;;;1.60;1.40;;;14.30;99.90;;;;;;5093801;28;20486;-83
2021/08/24 01:04:53;;;;;;;1.77;1.30;;;14.30;99.90;;;;;;5093792;28;20447;-83
2021/08/24 01:07:25;;;;;;;4.20;1.40;;;14.20;99.90;;;;;;5091565;28;20490;-83
2021/08/24 01:09:59;;;;;;;2.10;1.53;;;14.10;99.90;;;;;;5093806;28;20874;-83
2021/08/24 01:12:35;;;;;;;2.70;1.70;;;14.10;99.90;;;;;;5093563;28;20594;-83
2021/08/24 01:15:14;;;;;;;2.93;1.70;;;14.10;99.90;;;;;;5093697;28;20521;-83
2021/08/24 01:17:45;;;;;;;1.93;1.83;;;14.10;99.90;;;;;;5093427;28;20883;-83
2021/08/24 01:20:32;;;;;;;2.03;1.83;;;14.00;99.90;;;;;;5093450;28;20995;-83
2021/08/24 01:23:41;;;;;;;6.77;1.90;;;14.00;99.90;;;;;;5093668;28;20594;-83
2021/08/24 01:26:16;;;;;;;1.63;1.53;;;14.00;99.90;;;;;;5093527;28;20537;-83
2021/08/24 01:28:52;;;;;;;5.83;1.60;;;13.90;99.90;;;;;;5093623;28;20880;-83
2021/08/24 01:31:38;;;;;;;2.87;1.50;;;13.90;99.90;;;;;;5093436;28;20477;-83
2021/08/24 01:34:15;;;;;;;5.93;2.00;;;13.90;99.90;;;;;;5093364;28;20443;-82
2021/08/24 01:36:47;;;;;;;1.70;1.53;;;13.80;99.90;;;;;;5093270;28;20577;-83
2021/08/24 01:39:19;;;;;;;2.90;1.70;;;13.80;99.90;;;;;;5093337;28;20482;-82
2021/08/24 01:42:08;;;;;;;2.60;1.50;;;13.80;99.90;;;;;;5093244;28;20482;-83
2021/08/24 01:44:41;;;;;;;1.80;1.57;;;13.90;99.90;;;;;;5092920;28;20474;-82
2021/08/24 01:47:14;;;;;;;2.60;1.83;;;13.80;99.90;;;;;;5093011;28;20504;-83
2021/08/24 01:49:51;;;;;;;2.63;2.30;;;13.80;99.90;;;;;;5092964;28;20443;-82
2021/08/24 01:52:22;;;;;;;1.87;1.77;;;13.80;99.90;;;;;;5093283;28;20872;-82
2021/08/24 01:54:56;;;;;;;2.93;2.07;;;13.80;99.90;;;;;;5093046;28;20537;-82
2021/08/24 01:57:29;;;;;;;6.17;2.10;;;13.70;99.90;;;;;;5092822;28;20486;-83
2021/08/24 02:00:02;;;;;;;3.13;1.83;;;13.70;99.90;;;;;;5092898;28;20450;-83
2021/08/24 02:02:33;;;;;;;4.53;1.90;;;13.60;99.90;;;;;;5093006;28;20871;-83
2021/08/24 02:05:10;;;;;;;2.50;1.87;;;13.70;99.90;;;;;;5092773;28;20481;-82
2021/08/24 02:07:39;;;;;;;3.00;1.90;;;13.70;99.90;;;;;;5092872;28;20485;-83
2021/08/24 02:10:10;;;;;;;3.93;2.00;;;13.60;99.90;;;;;;5092972;28;20474;-83
2021/08/24 02:12:40;;;;;;;2.40;2.00;;;13.50;99.90;;;;;;5093156;28;20477;-83
2021/08/24 02:15:07;;;;;;;2.80;1.70;;;13.50;99.90;;;;;;5092821;28;20470;-83
2021/08/24 02:17:36;;;;;;;4.07;2.20;;;13.50;99.90;;;;;;5093514;28;21064;-83
2021/08/24 02:20:09;;;;;;;2.47;1.70;;;13.40;99.90;;;;;;5096927;28;20454;-83
2021/08/24 02:22:41;;;;;;;4.30;2.20;;;13.40;99.90;;;;;;5097252;28;20482;-83
2021/08/24 02:25:12;;;;;;;3.23;2.10;;;13.40;99.90;;;;;;5096941;28;21016;-83
2021/08/24 02:27:44;;;;;;;14.73;2.33;;;13.30;99.90;;;;;;5096916;28;20558;-83
2021/08/24 02:30:11;;;;;;;2.50;2.30;;;13.40;99.90;;;;;;5096684;28;20479;-83
2021/08/24 02:32:44;;;;;;;3.83;2.00;;;13.40;99.90;;;;;;5096648;28;20446;-83
2021/08/24 02:35:26;;;;;;;3.47;2.00;;;13.40;99.90;;;;;;5096551;28;20446;-83
2021/08/24 02:37:59;;;;;;;3.23;1.97;;;13.30;99.90;;;;;;5096736;28;20489;-83
2021/08/24 02:40:33;;;;;;;2.97;1.93;;;13.30;99.90;;;;;;5096712;28;20556;-83
2021/08/24 02:43:07;;;;;;;1.83;1.73;;;13.30;99.90;;;;;;5096490;28;20557;-84
2021/08/24 02:45:40;;;;;;;3.13;2.10;;;13.30;99.90;;;;;;5096306;28;20501;-84
2021/08/24 02:48:10;;;;;;;2.90;1.70;;;13.30;99.90;;;;;;5096617;28;20562;-83
2021/08/24 02:50:37;;;;;;;2.17;1.60;;;13.30;99.90;;;;;;5096367;28;20456;-84
2021/08/24 02:53:05;;;;;;;4.37;2.03;;;13.30;99.90;;;;;;5096379;28;20455;-83
2021/08/24 02:55:35;;;;;;;2.80;2.00;;;13.30;99.90;;;;;;5096690;28;20538;-83
2021/08/24 02:58:01;;;;;;;2.23;1.93;;;13.30;99.90;;;;;;5096291;28;20543;-84
2021/08/24 03:00:28;;;;;;;2.20;2.00;;;13.20;99.90;;;;;;5096235;28;20533;-83
2021/08/24 03:02:55;;;;;;;3.30;1.93;;;13.30;99.90;;;;;;5096225;28;21035;-83
2021/08/24 03:05:22;;;;;;;2.23;1.57;;;13.20;99.90;;;;;;5096226;28;20478;-83
2021/08/24 03:07:49;;;;;;;2.30;2.10;;;13.20;99.90;;;;;;5096022;28;20537;-83
2021/08/24 03:10:22;;;;;;;2.60;1.63;;;13.10;99.90;;;;;;5095894;28;20474;-84
2021/08/24 03:12:55;;;;;;;1.90;1.70;;;13.20;99.90;;;;;;5096055;28;20469;-84
2021/08/24 03:15:26;;;;;;;2.47;1.73;;;13.10;99.90;;;;;;5095815;28;20474;-83
2021/08/24 03:17:57;;;;;;;4.30;1.90;;;13.10;99.90;;;;;;5095856;28;20869;-83
2021/08/24 03:20:26;;;;;;;6.20;2.20;;;13.10;99.90;;;;;;5095704;28;20476;-83
2021/08/24 03:22:55;;;;;;;2.30;1.97;;;13.10;99.90;;;;;;5095879;28;20802;-83
2021/08/24 03:25:24;;;;;;;2.30;1.57;;;13.10;99.90;;;;;;5095791;28;20534;-83
2021/08/24 03:27:52;;;;;;;1.70;1.60;;;13.20;99.90;;;;;;5095778;28;20474;-83
2021/08/24 03:30:20;;;;;;;2.20;1.57;;;13.20;99.90;;;;;;5094752;28;20435;-83
2021/08/24 03:32:48;;;;;;;3.73;1.80;;;13.20;99.90;;;;;;5095559;28;20506;-83
2021/08/24 03:35:17;;;;;;;2.27;1.70;;;13.20;99.90;;;;;;5095287;28;20604;-83
2021/08/24 03:37:44;;;;;;;4.03;1.80;;;13.20;99.90;;;;;;5095508;28;20609;-83
2021/08/24 03:40:12;;;;;;;2.23;2.10;;;13.20;99.90;;;;;;5095182;28;20907;-82
2021/08/24 03:42:41;;;;;;;4.37;1.70;;;13.20;99.90;;;;;;5095368;28;20503;-83
2021/08/24 03:45:08;;;;;;;2.13;1.50;;;13.20;99.90;;;;;;5095089;28;20506;-83
2021/08/24 03:47:35;;;;;;;6.87;2.00;;;13.20;99.90;;;;;;5095237;28;20554;-83
2021/08/24 03:50:02;;;;;;;1.87;1.53;;;13.20;99.90;;;;;;5095081;28;20541;-83
2021/08/24 03:52:28;;;;;;;2.83;2.10;;;13.30;99.90;;;;;;5095267;28;20482;-83
2021/08/24 03:54:55;;;;;;;2.47;1.90;;;13.20;99.90;;;;;;5095246;28;20493;-83
2021/08/24 03:57:21;;;;;;;2.93;1.20;;;13.20;99.90;;;;;;5095035;28;20624;-83
2021/08/24 03:59:53;;;;;;;4.03;1.60;;;13.20;99.90;;;;;;5094911;28;21050;-83
2021/08/24 04:02:19;;;;;;;2.10;1.90;;;13.20;99.90;;;;;;5095083;28;20530;-83
2021/08/24 04:04:47;;;;;;;2.33;1.47;;;13.20;99.90;;;;;;5094939;28;20504;-83
2021/08/24 04:07:14;;;;;;;5.97;2.00;;;13.20;99.90;;;;;;5095002;28;20537;-83
2021/08/24 04:09:40;;;;;;;1.80;1.70;;;13.20;99.90;;;;;;5094762;28;20476;-83
2021/08/24 04:12:08;;;;;;;2.50;1.70;;;13.30;99.90;;;;;;5094871;28;20485;-83
2021/08/24 04:14:35;;;;;;;4.37;1.40;;;13.30;99.90;;;;;;5094790;28;20846;-83
2021/08/24 04:17:03;;;;;;;5.00;2.00;;;13.30;99.90;;;;;;5094638;28;20913;-83
2021/08/24 04:19:29;;;;;;;1.80;1.60;;;13.20;99.90;;;;;;5094735;28;20790;-83
2021/08/24 04:21:56;;;;;;;2.77;1.87;;;13.20;99.90;;;;;;5094788;28;20504;-83
2021/08/24 04:24:22;;;;;;;2.27;1.70;;;13.30;99.90;;;;;;5095149;28;20493;-83
2021/08/24 04:26:49;;;;;;;2.33;1.60;;;13.30;99.90;;;;;;5094741;28;20538;-83
2021/08/24 04:29:15;;;;;;;2.10;1.80;;;13.30;99.90;;;;;;5094489;28;20876;-81
2021/08/24 04:31:42;;;;;;;2.00;1.80;;;13.40;99.90;;;;;;5094296;28;20543;-78
2021/08/24 04:34:10;;;;;;;1.70;1.20;;;13.40;99.90;;;;;;5094483;28;20482;-78
2021/08/24 04:36:37;;;;;;;2.37;1.50;;;13.50;99.90;;;;;;5094435;28;20537;-78
2021/08/24 04:39:03;;;;;;;1.73;1.63;;;13.50;99.90;;;;;;5094248;28;20537;-78
2021/08/24 04:41:31;;;;;;;3.77;1.60;;;13.50;99.90;;;;;;5094186;28;20523;-78
2021/08/24 04:43:57;;;;;;;1.90;1.60;;;13.50;99.90;;;;;;5094000;28;20540;-79
2021/08/24 04:46:24;;;;;;;1.77;1.50;;;13.60;99.90;;;;;;5093907;28;20543;-79
2021/08/24 04:48:50;;;;;;;1.70;1.60;;;13.50;99.90;;;;;;5094227;28;20450;-80
2021/08/24 04:51:18;;;;;;;6.13;2.10;;;13.50;99.90;;;;;;5093993;28;20542;-82
2021/08/24 04:53:45;;;;;;;3.10;1.70;;;13.50;99.90;;;;;;5094063;28;20542;-83
2021/08/24 04:56:11;;;;;;;5.60;1.70;;;13.60;99.90;;;;;;5093864;28;20446;-82
2021/08/24 04:58:38;;;;;;;2.47;2.00;;;13.60;99.90;;;;;;5093744;28;20573;-82
2021/08/24 05:01:04;;;;;;;2.13;1.50;;;13.70;99.90;;;;;;5093776;28;20898;-82
2021/08/24 05:03:32;;;;;;;2.33;1.60;;;13.70;99.90;;;;;;5093930;28;20490;-83
2021/08/24 05:05:58;;;;;;;2.83;1.13;;;13.80;99.90;;;;;;5093923;28;20450;-80
2021/08/24 05:08:27;;;;;;;2.63;1.20;;;13.90;99.90;;;;;;5093801;28;20457;-79
2021/08/24 05:10:53;;;;;;;2.60;1.50;;;14.00;99.90;;;;;;5093588;28;20443;-79
2021/08/24 05:13:20;;;;;;;2.30;2.10;;;14.00;99.90;;;;;;5093468;28;20975;-80
2021/08/24 05:15:46;;;;;;;2.77;1.20;;;14.10;99.90;;;;;;5093496;28;20534;-79
2021/08/24 05:18:13;;;;;;;1.83;1.40;;;14.20;99.90;;;;;;5093787;28;20917;-79
2021/08/24 05:20:39;;;;;;;1.70;1.50;;;14.20;99.90;;;;;;5093460;28;20538;-79
2021/08/24 05:23:06;;;;;;;3.10;1.23;;;14.20;99.90;;;;;;5093694;28;20537;-80
2021/08/24 05:25:34;;;;;;;2.83;1.77;;;14.30;99.90;;;;;;5093403;28;20541;-79
2021/08/24 05:28:02;;;;;;;2.10;1.10;;;14.30;99.90;;;;;;5091603;28;20474;-79
2021/08/24 05:30:28;;;;;;;2.10;1.50;;;14.30;99.90;;;;;;5093250;28;20493;-79
2021/08/24 05:32:55;;;;;;;1.70;1.60;;;14.40;99.90;;;;;;5093395;28;20542;-79
2021/08/24 05:35:22;;;;;;;1.40;1.23;;;14.40;99.90;;;;;;5093219;28;20454;-79
2021/08/24 05:37:50;;;;;;;2.27;1.50;;;14.50;99.90;;;;;;5093100;28;20466;-79
2021/08/24 05:40:16;;;;;;;4.90;1.77;;;14.50;99.90;;;;;;5092935;28;20529;-79
2021/08/24 05:42:44;;;;;;;2.00;1.87;;;14.70;99.90;;;;;;5093214;28;20450;-79
2021/08/24 05:45:11;;;;;;;5.50;2.10;;;14.80;99.90;;;;;;5092744;28;20527;-79
2021/08/24 05:47:38;;;;;;;5.70;1.70;;;14.90;99.90;;;;;;5089950;28;20451;-79
2021/08/24 05:50:06;;;;;;;2.87;1.70;;;15.00;99.90;;;;;;5092331;28;20529;-78
2021/08/24 05:52:32;;;;;;;2.70;1.57;;;15.10;99.90;;;;;;5091805;28;20530;-78
2021/08/24 05:54:59;;;;;;;3.07;1.30;;;15.20;99.90;;;;;;5093014;28;20526;-77
2021/08/24 05:57:25;;;;;;;1.67;1.17;;;15.20;99.90;;;;;;5092875;28;20549;-77
2021/08/24 05:59:53;;;;;;;2.83;1.80;;;15.30;99.90;;;;;;5093130;28;20537;-77
2021/08/24 06:02:20;;;;;;;1.50;1.20;;;15.50;99.90;;;;;;5090279;28;20533;-79
2021/08/24 06:04:46;;;;;;;2.37;1.47;;;15.70;99.90;;;;;;5092044;28;20529;-78
2021/08/24 06:07:13;;;;;;;2.00;1.33;;;15.90;99.90;;;;;;5090838;28;20457;-79
2021/08/24 06:09:40;;;;;;;4.10;1.60;;;16.20;99.90;;;;;;5091216;28;20455;-79
2021/08/24 06:12:07;;;;;;;3.20;1.43;;;16.30;99.90;;;;;;5092651;28;20505;-79
2021/08/24 06:14:34;;;;;;;3.10;1.47;;;16.50;99.90;;;;;;5092851;28;20545;-79
2021/08/24 06:17:02;;;;;;;2.23;1.40;;;16.60;99.90;;;;;;5092949;28;20505;-78
2021/08/24 06:19:30;;;;;;;3.50;1.53;;;16.60;99.90;;;;;;5092783;28;20482;-78
2021/08/24 06:21:59;;;;;;;2.03;1.20;;;16.80;99.90;;;;;;5092755;28;20534;-78
2021/08/24 06:24:26;;;;;;;1.30;1.20;;;16.80;99.90;;;;;;5092963;28;20886;-79
2021/08/24 06:26:52;;;;;;;1.43;1.33;;;17.10;99.90;;;;;;5092808;28;20450;-78
2021/08/24 06:29:19;;;;;;;2.23;1.50;;;17.40;99.90;;;;;;5093022;28;20541;-78
2021/08/24 06:31:49;;;;;;;1.60;1.50;;;17.40;99.90;;;;;;5092773;28;20817;-78
2021/08/24 06:34:18;;;;;;;2.30;1.40;;;17.40;99.90;;;;;;5092706;28;20987;-79
2021/08/24 06:36:44;;;;;;;2.97;1.60;;;17.50;99.90;;;;;;5092946;28;20537;-79
2021/08/24 06:39:11;;;;;;;1.43;1.20;;;17.80;99.90;;;;;;5092800;28;20581;-79
2021/08/24 06:41:39;;;;;;;2.70;1.63;;;18.00;99.90;;;;;;5092497;28;20949;-78
2021/08/24 06:44:06;;;;;;;2.97;1.30;;;18.10;99.90;;;;;;5092468;28;20531;-79
2021/08/24 06:46:33;;;;;;;3.67;1.93;;;18.30;99.90;;;;;;5092671;28;20511;-78
2021/08/24 06:48:59;;;;;;;1.70;1.20;;;18.40;99.90;;;;;;5092592;28;20782;-78
2021/08/24 06:51:28;;;;;;;1.50;1.40;;;18.30;99.90;;;;;;5092872;28;20489;-78
2021/08/24 06:53:54;;;;;;;4.10;1.30;;;18.50;99.90;;;;;;5092616;28;20538;-79
2021/08/24 06:56:21;;;;;;;1.47;1.30;;;18.70;99.90;;;;;;5092571;28;20482;-79
2021/08/24 06:58:48;;;;;;;2.07;1.33;;;18.70;99.90;;;;;;5092429;28;20568;-78
2021/08/24 07:01:16;;;;;;;1.70;1.60;;;18.60;99.90;;;;;;5092499;28;20446;-78
2021/08/24 07:03:43;;;;;;;1.67;1.33;;;18.50;99.90;;;;;;5092255;28;20537;-78
2021/08/24 07:06:09;;;;;;;1.17;1.07;;;18.50;99.90;;;;;;5095566;28;20952;-78
2021/08/24 07:08:37;;;;;;;1.40;1.30;;;18.50;99.90;;;;;;5096218;28;20554;-79
2021/08/24 07:11:04;;;;;;;2.40;1.23;;;18.60;99.90;;;;;;5096100;28;20442;-79
2021/08/24 07:13:31;;;;;;;1.80;1.43;;;18.40;99.90;;;;;;5095874;28;20545;-78
2021/08/24 07:15:58;;;;;;;1.53;1.43;;;18.60;99.90;;;;;;5095804;28;20521;-79
2021/08/24 07:18:25;;;;;;;3.53;1.47;;;18.70;99.90;;;;;;5095834;28;20469;-79
2021/08/24 07:20:53;;;;;;;2.17;1.40;;;18.80;99.90;;;;;;5095993;28;20533;-78
2021/08/24 07:23:19;;;;;;;2.80;1.67;;;19.00;99.90;;;;;;5095565;28;20941;-78
2021/08/24 07:25:47;;;;;;;3.30;1.97;;;19.10;99.90;;;;;;5095796;28;20537;-79
2021/08/24 07:28:14;;;;;;;2.90;1.77;;;19.30;99.90;;;;;;5095563;28;20546;-79
2021/08/24 07:30:44;;;;;;;1.40;1.17;;;19.30;99.90;;;;;;5095611;28;20540;-79
2021/08/24 07:33:11;;;;;;;2.90;1.50;;;19.20;99.90;;;;;;5095655;28;20492;-79
2021/08/24 07:35:37;;;;;;;1.43;1.33;;;19.00;99.90;;;;;;5095679;28;20872;-78
2021/08/24 07:38:04;;;;;;;1.90;1.70;;;18.90;99.90;;;;;;5095515;28;20545;-78
2021/08/24 07:40:31;;;;;;;2.40;1.50;;;18.90;99.90;;;;;;5095512;28;20538;-79
2021/08/24 07:42:59;;;;;;;1.50;1.40;;;19.00;99.90;;;;;;5095217;28;20485;-79
2021/08/24 07:45:26;;;;;;;3.50;1.50;;;18.90;99.90;;;;;;5095273;28;21045;-78
2021/08/24 07:47:53;;;;;;;2.83;1.53;;;18.90;99.90;;;;;;5095300;28;20537;-79
2021/08/24 07:50:20;;;;;;;3.23;1.50;;;19.00;99.90;;;;;;5095424;28;20544;-79
2021/08/24 07:52:46;;;;;;;1.80;1.67;;;19.20;99.90;;;;;;5095069;28;20518;-79
2021/08/24 07:55:13;;;;;;;2.10;1.33;;;19.20;99.90;;;;;;5095246;28;20984;-78
2021/08/24 07:57:39;;;;;;;2.93;1.67;;;19.20;99.90;;;;;;5094985;28;20541;-79
2021/08/24 08:00:08;;;;;;;2.07;1.33;;;19.30;99.90;;;;;;5095335;28;20500;-79
2021/08/24 08:02:35;;;;;;;1.47;1.30;;;19.40;99.90;;;;;;5095259;28;20508;-79
2021/08/24 08:05:02;;;;;;;3.60;1.80;;;19.30;99.90;;;;;;5095259;28;20450;-78
2021/08/24 08:07:28;;;;;;;3.97;2.33;;;19.30;99.90;;;;;;5095067;28;20450;-79
2021/08/24 08:09:55;;;;;;;1.83;1.30;;;19.40;99.90;;;;;;5095001;28;21036;-79
2021/08/24 08:12:22;;;;;;;1.50;1.40;;;19.50;99.90;;;;;;5094840;28;20534;-79
2021/08/24 08:14:48;;;;;;;1.57;1.47;;;19.60;99.90;;;;;;5095006;28;20507;-79
2021/08/24 08:17:17;;;;;;;1.80;1.50;;;19.70;99.90;;;;;;5094669;28;20580;-79
2021/08/24 08:19:43;;;;;;;2.23;2.00;;;19.70;99.90;;;;;;5094708;28;20597;-79
2021/08/24 08:22:11;;;;;;;2.20;2.00;;;19.70;99.90;;;;;;5094991;28;20443;-79
2021/08/24 08:24:37;;;;;;;1.33;1.23;;;19.60;99.90;;;;;;5094403;28;20538;-79
2021/08/24 08:27:05;;;;;;;2.40;2.20;;;19.50;99.90;;;;;;5094832;28;20550;-79
2021/08/24 08:29:31;;;;;;;1.57;1.43;;;19.40;99.90;;;;;;5094556;28;20450;-79
2021/08/24 08:32:02;;;;;;;3.60;1.60;;;19.50;99.90;;;;;;5094638;28;20453;-79
2021/08/24 08:34:30;;;;;;;1.60;1.50;;;19.40;99.90;;;;;;5094448;28;20878;-79
2021/08/24 08:36:57;;;;;;;3.67;1.23;;;19.50;99.90;;;;;;5094383;28;20537;-79
2021/08/24 08:39:23;;;;;;;2.23;1.23;;;19.60;99.90;;;;;;5094040;28;20572;-79
2021/08/24 08:42:05;;;;;;;2.97;1.70;;;19.80;99.90;;;;;;5094465;28;20454;-79
2021/08/24 08:44:41;;;;;;;1.43;1.13;;;20.00;99.90;;;;;;5094105;28;20475;-79
2021/08/24 08:47:17;;;;;;;2.70;1.30;;;20.10;99.90;;;;;;5094248;28;20470;-79
2021/08/24 08:49:52;;;;;;;2.60;1.40;;;19.90;99.90;;;;;;5094006;28;20450;-79
2021/08/24 08:52:25;;;;;;;2.57;1.43;;;19.80;99.90;;;;;;5094189;28;20446;-79
2021/08/24 08:54:58;;;;;;;1.60;1.33;;;19.50;99.90;;;;;;5094108;28;20858;-79
2021/08/24 08:57:30;;;;;;;1.47;1.37;;;19.50;99.90;;;;;;5094047;28;20530;-78
2021/08/24 09:00:03;;;;;;;2.30;1.40;;;19.50;99.90;;;;;;5093863;28;20565;-79
2021/08/24 09:02:36;;;;;;;1.70;1.50;;;19.70;99.90;;;;;;5094121;28;20558;-79
2021/08/24 09:05:06;;;;;;;1.70;1.37;;;19.70;99.90;;;;;;5093995;28;20545;-79
2021/08/24 09:07:40;;;;;;;3.00;1.87;;;19.70;99.90;;;;;;5093944;28;20855;-78
2021/08/24 09:10:11;;;;;;;1.20;1.10;;;19.50;99.90;;;;;;5093784;28;20500;-78
2021/08/24 09:12:37;;;;;;;1.80;1.20;;;19.40;99.90;;;;;;5093697;28;20504;-79
2021/08/24 09:15:08;;;;;;;2.80;1.90;;;19.30;99.90;;;;;;5093622;28;21021;-79
2021/08/24 09:17:38;;;;;;;1.50;1.40;;;19.20;99.90;;;;;;5093733;28;20450;-79
2021/08/24 09:20:13;;;;;;;1.80;1.57;;;19.30;99.90;;;;;;5093441;28;20531;-79
2021/08/24 09:22:40;;;;;;;3.17;1.37;;;19.40;99.90;;;;;;5093604;28;20474;-79
2021/08/24 09:25:13;;;;;;;1.70;1.40;;;19.50;99.90;;;;;;5093316;28;20523;-79
2021/08/24 09:27:49;;;;;;;3.10;1.80;;;19.50;99.90;;;;;;5093040;28;20538;-79
2021/08/24 09:30:17;;;;;;;3.10;1.70;;;19.60;99.90;;;;;;5093333;28;21004;-79
2021/08/24 09:32:44;;;;;;;2.10;1.47;;;19.50;99.90;;;;;;5093505;28;20482;-78
2021/08/24 09:35:28;;;;;;;3.63;1.53;;;19.40;99.90;;;;;;5093337;28;20550;-79
2021/08/24 09:37:58;;;;;;;2.90;1.60;;;19.40;99.90;;;;;;5093267;28;20877;-79
2021/08/24 09:40:40;;;;;;;1.50;1.40;;;19.50;99.90;;;;;;5093300;28;20882;-79
2021/08/24 09:43:21;;;;;;;2.90;1.33;;;19.50;99.90;;;;;;5093048;28;20980;-79
2021/08/24 09:45:55;;;;;;;1.73;1.23;;;19.50;99.90;;;;;;5093239;28;20484;-79
2021/08/24 09:48:23;;;;;;;2.73;1.67;;;19.40;99.90;;;;;;5093419;28;20434;-78
2021/08/24 09:50:51;;;;;;;1.50;1.40;;;19.40;99.90;;;;;;5093244;28;20908;-79
2021/08/24 09:53:29;;;;;;;2.20;1.40;;;19.50;99.90;;;;;;5093160;28;20542;-79
2021/08/24 09:55:56;;;;;;;1.73;1.50;;;19.50;99.90;;;;;;5093134;28;20546;-78
2021/08/24 09:58:31;;;;;;;2.10;1.87;;;19.60;99.90;;;;;;5092996;28;20537;-79
2021/08/24 10:01:02;;;;;;;1.97;1.67;;;19.70;99.90;;;;;;5093156;28;20919;-78
2021/08/24 10:03:31;;;;;;;2.27;1.53;;;19.70;99.90;;;;;;5093165;28;20541;-79
2021/08/24 10:06:07;;;;;;;1.60;1.50;;;19.80;99.90;;;;;;5092954;28;20450;-79
2021/08/24 10:08:37;;;;;;;4.30;1.60;;;19.80;99.90;;;;;;5093054;28;20533;-79
2021/08/24 10:11:12;;;;;;;3.33;1.70;;;19.70;99.90;;;;;;5092847;28;20446;-79
2021/08/24 10:13:41;;;;;;;2.60;1.57;;;19.70;99.90;;;;;;5093231;28;20446;-79
2021/08/24 10:16:12;;;;;;;2.10;1.70;;;19.70;99.90;;;;;;5092889;28;20478;-79
2021/08/24 10:18:40;;;;;;;1.87;1.67;;;19.80;99.90;;;;;;5092904;28;20489;-78
2021/08/24 10:21:13;;;;;;;1.50;1.40;;;19.80;99.90;;;;;;5092758;28;20485;-79
2021/08/24 10:23:49;;;;;;;2.40;1.70;;;19.90;99.90;;;;;;5092737;28;20553;-78
2021/08/24 10:26:23;;;;;;;1.90;1.80;;;20.10;99.90;;;;;;5093013;28;20541;-79
2021/08/24 10:28:54;;;;;;;1.67;1.57;;;20.30;99.90;;;;;;5092730;28;20482;-79
2021/08/24 10:31:28;;;;;;;2.80;1.80;;;20.40;99.90;;;;;;5092748;28;20470;-79
2021/08/24 10:33:58;;;;;;;2.03;1.67;;;20.50;99.90;;;;;;5092747;28;20536;-79
2021/08/24 10:36:31;;;;;;;2.07;1.87;;;20.80;99.90;;;;;;5092846;28;20509;-79
2021/08/24 10:38:59;;;;;;;3.50;1.97;;;21.00;99.90;;;;;;5094074;28;20470;-79
2021/08/24 10:41:32;;;;;;;1.60;1.50;;;21.10;99.90;;;;;;5096532;28;20484;-79
2021/08/24 10:44:05;;;;;;;2.90;1.70;;;20.70;99.90;;;;;;5096395;28;20557;-79
2021/08/24 10:46:31;;;;;;;2.33;2.10;;;20.30;99.90;;;;;;5096485;28;20532;-79
2021/08/24 10:49:00;;;;;;;3.83;1.80;;;20.20;99.90;;;;;;5096572;28;20542;-79
2021/08/24 10:51:47;;;;;;;3.40;2.37;;;20.00;99.90;;;;;;5096439;28;20446;-79
2021/08/24 10:54:27;;;;;;;5.00;2.23;;;20.00;99.90;;;;;;5096269;28;20450;-79
2021/08/24 10:57:01;;;;;;;2.60;1.90;;;20.00;99.90;;;;;;5096359;28;20446;-79
2021/08/24 10:59:39;;;;;;;2.13;2.00;;;20.20;99.90;;;;;;5096043;28;21059;-79
2021/08/24 11:02:19;;;;;;;1.87;1.77;;;20.30;99.90;;;;;;5096351;28;20540;-78
2021/08/24 11:04:52;;;;;;;2.97;2.40;;;20.30;99.90;;;;;;5096138;28;20549;-79
2021/08/24 11:07:32;;;;;;;2.47;2.27;;;20.40;99.90;;;;;;5096092;28;20537;-79
2021/08/24 11:10:06;;;;;;;4.73;2.40;;;20.50;99.90;;;;;;5096182;28;20536;-79
2021/08/24 11:12:45;;;;;;;2.27;2.07;;;20.60;99.90;;;;;;5096190;28;20858;-79
2021/08/24 11:15:27;;;;;;;2.43;2.23;;;20.60;99.90;;;;;;5095794;28;20446;-79
2021/08/24 11:17:58;;;;;;;2.33;2.10;;;20.60;99.90;;;;;;5096046;28;20537;-79
2021/08/24 11:20:33;;;;;;;2.53;2.10;;;20.50;99.90;;;;;;5095841;28;20572;-79
2021/08/24 11:23:11;;;;;;;2.80;2.30;;;20.60;99.90;;;;;;5096183;28;20544;-79
2021/08/24 11:25:43;;;;;;;2.53;2.33;;;20.70;99.90;;;;;;5095823;28;20486;-79
2021/08/24 11:28:24;;;;;;;3.00;2.07;;;20.60;99.90;;;;;;5095945;28;20533;-79
2021/08/24 11:30:56;;;;;;;2.57;2.37;;;20.60;99.90;;;;;;5095772;28;20541;-79
2021/08/24 11:33:28;;;;;;;2.10;1.90;;;20.40;99.90;;;;;;5095881;28;20489;-79
2021/08/24 11:36:00;;;;;;;2.67;2.20;;;20.30;99.90;;;;;;5095566;28;20485;-79
2021/08/24 11:38:34;;;;;;;1.80;1.70;;;20.30;99.90;;;;;;5096185;28;20538;-79
2021/08/24 11:41:06;;;;;;;4.53;2.00;;;20.40;99.90;;;;;;5095491;28;20517;-79
2021/08/24 11:43:40;;;;;;;1.60;1.50;;;20.40;99.90;;;;;;5095478;28;20474;-79
2021/08/24 11:46:10;;;;;;;2.23;2.03;;;20.30;99.90;;;;;;5095545;28;20879;-79
2021/08/24 11:48:43;;;;;;;2.30;2.10;;;20.40;99.90;;;;;;5095324;28;21024;-79
2021/08/24 11:51:16;;;;;;;3.10;2.23;;;20.40;99.90;;;;;;5094459;28;20443;-79
2021/08/24 11:53:49;;;;;;;2.40;2.20;;;20.50;99.90;;;;;;5095380;28;20450;-79
2021/08/24 11:56:32;;;;;;;2.10;1.90;;;20.60;99.90;;;;;;5095237;28;20533;-79
2021/08/24 11:59:01;;;;;;;2.73;2.00;;;20.80;99.90;;;;;;5095208;28;20541;-79
2021/08/24 12:01:28;;;;;;;2.47;2.10;;;20.90;99.90;;;;;;5094857;28;20485;-79
2021/08/24 12:03:59;;;;;;;2.20;2.00;;;20.90;99.90;;;;;;5095210;28;20548;-79
2021/08/24 12:06:31;;;;;;;2.90;2.00;;;21.00;99.90;;;;;;5095271;28;20738;-79
2021/08/24 12:09:01;;;;;;;5.67;1.90;;;21.10;99.90;;;;;;5095065;28;20535;-79
2021/08/24 12:11:42;;;;;;;3.60;2.57;;;21.00;99.90;;;;;;5094922;28;20454;-79
2021/08/24 12:14:18;;;;;;;2.97;2.77;;;21.00;99.90;;;;;;5095105;28;20497;-79
2021/08/24 12:16:56;;;;;;;4.77;2.30;;;21.00;99.90;;;;;;5074853;28;20451;-79
2021/08/24 12:19:24;;;;;;;4.77;2.80;;;21.10;99.90;;;;;;5074540;28;20559;-79
2021/08/24 12:21:54;;;;;;;2.80;2.60;;;21.20;99.90;;;;;;5074433;28;20543;-79
2021/08/24 12:24:42;;;;;;;2.97;2.60;;;21.40;99.90;;;;;;5074332;28;20474;-79
2021/08/24 12:27:57;;;;;;;5.03;3.07;;;21.50;99.90;;;;;;5074425;28;20475;-79
2021/08/24 12:30:27;;;;;;;3.10;2.80;;;21.60;99.90;;;;;;5074351;28;20475;-79
2021/08/24 12:33:28;;;;;;;3.60;3.00;;;21.50;99.90;;;;;;5074366;28;20446;-79
2021/08/24 12:35:56;;;;;;;2.70;2.50;;;21.40;99.90;;;;;;5074253;28;20504;-79
2021/08/24 12:38:42;;;;;;;2.83;2.63;;;21.60;99.90;;;;;;5074100;28;20486;-78
2021/08/24 12:41:11;;;;;;;3.40;3.10;;;21.50;99.90;;;;;;5073832;28;20507;-79
2021/08/24 12:43:47;;;;;;;3.73;3.33;;;21.40;99.90;;;;;;5073964;28;20553;-79
2021/08/24 12:46:34;;;;;;;3.50;2.90;;;21.20;99.90;;;;;;5073998;28;20848;-78
2021/08/24 12:49:40;;;;;;;3.60;3.30;;;21.20;99.90;;;;;;5073971;28;20539;-79
2021/08/24 12:52:33;;;;;;;3.17;2.83;;;21.50;99.90;;;;;;5073712;28;20942;-79
2021/08/24 12:55:38;;;;;;;3.70;3.10;;;21.70;99.90;;;;;;5073898;28;20455;-79
2021/08/24 12:58:13;;;;;;;3.33;3.03;;;21.70;99.90;;;;;;5071860;28;20451;-79
2021/08/24 13:00:42;;;;;;;4.30;2.80;;;21.40;99.90;;;;;;5073728;28;20577;-79
2021/08/24 13:03:21;;;;;;;4.27;3.37;;;21.40;99.90;;;;;;5072711;28;20501;-79
2021/08/24 13:06:08;;;;;;;3.00;2.70;;;21.60;99.90;;;;;;5073537;28;20539;-79